sensor_id;sensor_type;location;lat;lon;timestamp;pressure;altitude;pressure_sealevel;temperature;humidity
21574;BME280;10948;48.706;9.258;2023-03-22T00:01:46;97625.72;;;9.79;100.00
21574;BME280;10948;48.706;9.258;2023-03-22T00:04:12;97630.81;;;9.67;100.00
21574;BME280;10948;48.706;9.258;2023-03-22T00:06:37;97625.88;;;9.76;100.00
21574;BME280;10948;48.706;9.258;2023-03-22T00:09:02;97630.56;;;9.85;100.00
21574;BME280;10948;48.706;9.258;2023-03-22T00:11:27;97625.16;;;9.88;100.00
21574;BME280;10948;48.706;9.258;2023-03-22T00:13:53;97633.16;;;9.85;100.00
21574;BME280;10948;48.706;9.258;2023-03-22T00:16:19;97629.69;;;9.85;100.00
21574;BME280;10948;48.706;9.258;2023-03-22T00:18:45;97629.63;;;9.86;100.00
21574;BME280;10948;48.706;9.258;2023-03-22T00:21:12;97634.59;;;9.61;100.00
21574;BME280;10948;48.706;9.258;2023-03-22T00:23:38;97625.97;;;9.61;100.00
21574;BME280;10948;48.706;9.258;2023-03-22T00:26:04;97627.69;;;9.46;100.00
21574;BME280;10948;48.706;9.258;2023-03-22T00:28:30;97627.78;;;9.59;100.00
21574;BME280;10948;48.706;9.258;2023-03-22T00:30:59;97627.84;;;9.43;100.00
21574;BME280;10948;48.706;9.258;2023-03-22T00:33:25;97624.31;;;9.30;100.00
21574;BME280;10948;48.706;9.258;2023-03-22T00:35:52;97618.41;;;9.27;100.00
21574;BME280;10948;48.706;9.258;2023-03-22T00:38:19;97614.91;;;9.57;100.00
21574;BME280;10948;48.706;9.258;2023-03-22T00:40:44;97612.69;;;9.65;100.00
21574;BME280;10948;48.706;9.258;2023-03-22T00:43:10;97608.25;;;9.67;100.00
21574;BME280;10948;48.706;9.258;2023-03-22T00:45:35;97614.78;;;9.45;100.00
21574;BME280;10948;48.706;9.258;2023-03-22T00:48:02;97609.84;;;9.40;100.00
21574;BME280;10948;48.706;9.258;2023-03-22T00:50:28;97612.22;;;9.59;100.00
21574;BME280;10948;48.706;9.258;2023-03-22T00:52:53;97609.22;;;9.51;100.00
21574;BME280;10948;48.706;9.258;2023-03-22T00:55:18;97603.56;;;9.44;100.00
21574;BME280;10948;48.706;9.258;2023-03-22T00:57:44;97603.94;;;9.38;100.00
21574;BME280;10948;48.706;9.258;2023-03-22T01:00:09;97601.41;;;9.37;100.00
21574;BME280;10948;48.706;9.258;2023-03-22T01:02:38;97598.03;;;9.50;100.00
21574;BME280;10948;48.706;9.258;2023-03-22T01:05:04;97596.75;;;9.28;100.00
21574;BME280;10948;48.706;9.258;2023-03-22T01:07:30;97594.19;;;9.42;100.00
21574;BME280;10948;48.706;9.258;2023-03-22T01:09:56;97600.34;;;9.55;100.00
21574;BME280;10948;48.706;9.258;2023-03-22T01:12:21;97600.78;;;9.47;100.00
21574;BME280;10948;48.706;9.258;2023-03-22T01:14:46;97590.72;;;9.71;100.00
21574;BME280;10948;48.706;9.258;2023-03-22T01:17:12;97584.84;;;9.53;100.00
21574;BME280;10948;48.706;9.258;2023-03-22T01:19:37;97584.25;;;9.48;100.00
21574;BME280;10948;48.706;9.258;2023-03-22T01:22:03;97582.69;;;9.16;100.00
21574;BME280;10948;48.706;9.258;2023-03-22T01:24:28;97582.91;;;9.27;100.00
21574;BME280;10948;48.706;9.258;2023-03-22T01:26:54;97579.91;;;9.05;100.00
21574;BME280;10948;48.706;9.258;2023-03-22T01:29:19;97580.59;;;8.93;100.00
21574;BME280;10948;48.706;9.258;2023-03-22T01:31:45;97574.66;;;8.91;100.00
21574;BME280;10948;48.706;9.258;2023-03-22T01:34:10;97560.16;;;8.87;100.00
21574;BME280;10948;48.706;9.258;2023-03-22T01:36:35;97572.22;;;8.88;100.00
21574;BME280;10948;48.706;9.258;2023-03-22T01:39:00;97576.94;;;8.66;100.00
21574;BME280;10948;48.706;9.258;2023-03-22T01:41:26;97560.63;;;8.64;100.00
21574;BME280;10948;48.706;9.258;2023-03-22T01:44:07;97562.13;;;8.68;100.00
21574;BME280;10948;48.706;9.258;2023-03-22T01:46:32;97559.19;;;8.43;100.00
21574;BME280;10948;48.706;9.258;2023-03-22T01:48:58;97561.56;;;8.48;100.00
21574;BME280;10948;48.706;9.258;2023-03-22T01:51:25;97551.69;;;8.54;100.00
21574;BME280;10948;48.706;9.258;2023-03-22T01:53:51;97554.19;;;8.25;100.00
21574;BME280;10948;48.706;9.258;2023-03-22T01:56:19;97556.19;;;8.20;100.00
21574;BME280;10948;48.706;9.258;2023-03-22T01:58:46;97552.78;;;8.02;100.00
21574;BME280;10948;48.706;9.258;2023-03-22T02:01:12;97543.81;;;8.25;100.00
21574;BME280;10948;48.706;9.258;2023-03-22T02:03:44;97547.03;;;8.13;100.00
21574;BME280;10948;48.706;9.258;2023-03-22T02:06:11;97543.44;;;8.15;100.00
21574;BME280;10948;48.706;9.258;2023-03-22T02:08:37;97550.69;;;7.93;100.00
21574;BME280;10948;48.706;9.258;2023-03-22T02:11:03;97547.59;;;7.87;100.00
21574;BME280;10948;48.706;9.258;2023-03-22T02:16:16;97537.75;;;7.93;100.00
21574;BME280;10948;48.706;9.258;2023-03-22T02:29:15;97533.78;;;7.38;100.00
21574;BME280;10948;48.706;9.258;2023-03-22T02:39:48;97537.44;;;7.34;100.00
21574;BME280;10948;48.706;9.258;2023-03-22T02:49:49;97536.19;;;7.58;100.00
21574;BME280;10948;48.706;9.258;2023-03-22T02:59:54;97530.13;;;7.08;100.00
21574;BME280;10948;48.706;9.258;2023-03-22T03:02:22;97530.13;;;7.08;100.00
21574;BME280;10948;48.706;9.258;2023-03-22T03:04:48;97531.66;;;7.12;100.00
21574;BME280;10948;48.706;9.258;2023-03-22T03:07:16;97532.25;;;7.17;100.00
21574;BME280;10948;48.706;9.258;2023-03-22T03:09:43;97530.31;;;7.05;100.00
21574;BME280;10948;48.706;9.258;2023-03-22T03:12:18;97525.81;;;6.92;100.00
21574;BME280;10948;48.706;9.258;2023-03-22T03:14:44;97528.47;;;7.07;100.00
21574;BME280;10948;48.706;9.258;2023-03-22T03:20:01;97524.22;;;7.06;100.00
21574;BME280;10948;48.706;9.258;2023-03-22T03:27:34;97537.72;;;6.60;100.00
21574;BME280;10948;48.706;9.258;2023-03-22T03:32:31;97547.13;;;6.61;100.00
21574;BME280;10948;48.706;9.258;2023-03-22T03:37:34;97545.28;;;6.46;100.00
21574;BME280;10948;48.706;9.258;2023-03-22T03:42:30;97548.06;;;6.60;100.00
21574;BME280;10948;48.706;9.258;2023-03-22T03:44:55;97538.75;;;6.39;100.00
21574;BME280;10948;48.706;9.258;2023-03-22T03:47:21;97546.69;;;6.53;100.00
21574;BME280;10948;48.706;9.258;2023-03-22T03:49:47;97548.50;;;6.51;100.00
21574;BME280;10948;48.706;9.258;2023-03-22T03:52:12;97549.88;;;6.58;100.00
21574;BME280;10948;48.706;9.258;2023-03-22T03:54:38;97549.63;;;6.46;100.00
21574;BME280;10948;48.706;9.258;2023-03-22T03:57:03;97546.97;;;6.47;100.00
21574;BME280;10948;48.706;9.258;2023-03-22T03:59:28;97549.09;;;6.39;100.00
21574;BME280;10948;48.706;9.258;2023-03-22T04:01:53;97550.66;;;6.77;100.00
21574;BME280;10948;48.706;9.258;2023-03-22T04:04:20;97548.63;;;6.48;100.00
21574;BME280;10948;48.706;9.258;2023-03-22T04:06:50;97553.19;;;6.43;100.00
21574;BME280;10948;48.706;9.258;2023-03-22T04:09:16;97557.31;;;6.47;100.00
21574;BME280;10948;48.706;9.258;2023-03-22T04:11:42;97551.56;;;6.59;100.00
21574;BME280;10948;48.706;9.258;2023-03-22T04:14:07;97553.88;;;6.47;100.00
21574;BME280;10948;48.706;9.258;2023-03-22T04:16:33;97550.50;;;6.28;100.00
21574;BME280;10948;48.706;9.258;2023-03-22T04:18:58;97551.66;;;6.39;100.00
21574;BME280;10948;48.706;9.258;2023-03-22T04:21:23;97556.63;;;6.25;100.00
21574;BME280;10948;48.706;9.258;2023-03-22T04:23:48;97555.63;;;6.46;100.00
21574;BME280;10948;48.706;9.258;2023-03-22T04:26:13;97556.72;;;6.24;100.00
21574;BME280;10948;48.706;9.258;2023-03-22T04:28:39;97552.28;;;6.44;100.00
21574;BME280;10948;48.706;9.258;2023-03-22T04:31:04;97550.34;;;6.31;100.00
21574;BME280;10948;48.706;9.258;2023-03-22T04:33:30;97544.56;;;6.61;100.00
21574;BME280;10948;48.706;9.258;2023-03-22T04:35:56;97544.72;;;6.58;100.00
21574;BME280;10948;48.706;9.258;2023-03-22T04:38:22;97547.50;;;6.54;100.00
21574;BME280;10948;48.706;9.258;2023-03-22T04:40:49;97547.47;;;6.37;100.00
21574;BME280;10948;48.706;9.258;2023-03-22T04:43:15;97549.25;;;6.53;100.00
21574;BME280;10948;48.706;9.258;2023-03-22T04:45:42;97545.47;;;6.06;100.00
21574;BME280;10948;48.706;9.258;2023-03-22T04:48:08;97542.25;;;6.01;100.00
21574;BME280;10948;48.706;9.258;2023-03-22T04:50:34;97543.66;;;6.08;100.00
21574;BME280;10948;48.706;9.258;2023-03-22T04:52:59;97536.06;;;6.05;100.00
21574;BME280;10948;48.706;9.258;2023-03-22T04:55:24;97533.91;;;5.76;100.00
21574;BME280;10948;48.706;9.258;2023-03-22T04:57:51;97539.03;;;5.96;100.00
21574;BME280;10948;48.706;9.258;2023-03-22T05:00:18;97530.81;;;5.88;100.00
21574;BME280;10948;48.706;9.258;2023-03-22T05:02:45;97528.22;;;5.88;100.00
21574;BME280;10948;48.706;9.258;2023-03-22T05:05:10;97529.41;;;6.18;100.00
21574;BME280;10948;48.706;9.258;2023-03-22T05:07:36;97526.75;;;6.01;100.00
21574;BME280;10948;48.706;9.258;2023-03-22T05:10:03;97515.94;;;6.47;100.00
21574;BME280;10948;48.706;9.258;2023-03-22T05:12:29;97515.03;;;6.48;100.00
21574;BME280;10948;48.706;9.258;2023-03-22T05:14:55;97509.63;;;6.53;100.00
21574;BME280;10948;48.706;9.258;2023-03-22T05:17:21;97508.53;;;6.58;100.00
21574;BME280;10948;48.706;9.258;2023-03-22T05:19:46;97508.81;;;6.52;100.00
21574;BME280;10948;48.706;9.258;2023-03-22T05:22:11;97509.06;;;6.48;100.00
21574;BME280;10948;48.706;9.258;2023-03-22T05:24:37;97515.16;;;6.28;100.00
21574;BME280;10948;48.706;9.258;2023-03-22T05:27:03;97515.53;;;6.02;100.00
21574;BME280;10948;48.706;9.258;2023-03-22T05:29:28;97514.53;;;6.23;100.00
21574;BME280;10948;48.706;9.258;2023-03-22T05:31:53;97520.47;;;6.25;100.00
21574;BME280;10948;48.706;9.258;2023-03-22T05:34:19;97515.38;;;6.24;100.00
21574;BME280;10948;48.706;9.258;2023-03-22T05:36:46;97522.94;;;6.45;100.00
21574;BME280;10948;48.706;9.258;2023-03-22T05:39:11;97521.69;;;6.35;100.00
21574;BME280;10948;48.706;9.258;2023-03-22T05:41:38;97514.69;;;6.37;100.00
21574;BME280;10948;48.706;9.258;2023-03-22T05:44:04;97521.41;;;6.41;100.00
21574;BME280;10948;48.706;9.258;2023-03-22T05:46:29;97520.53;;;6.59;100.00
21574;BME280;10948;48.706;9.258;2023-03-22T05:48:54;97508.25;;;6.64;100.00
21574;BME280;10948;48.706;9.258;2023-03-22T05:51:20;97504.72;;;6.82;100.00
21574;BME280;10948;48.706;9.258;2023-03-22T05:53:46;97504.44;;;7.05;100.00
21574;BME280;10948;48.706;9.258;2023-03-22T05:56:11;97502.28;;;7.13;100.00
21574;BME280;10948;48.706;9.258;2023-03-22T05:58:37;97505.34;;;6.87;100.00
21574;BME280;10948;48.706;9.258;2023-03-22T06:01:10;97514.69;;;7.07;100.00
21574;BME280;10948;48.706;9.258;2023-03-22T06:03:36;97508.66;;;7.23;100.00
21574;BME280;10948;48.706;9.258;2023-03-22T06:06:02;97503.03;;;7.15;100.00
21574;BME280;10948;48.706;9.258;2023-03-22T06:08:30;97498.53;;;7.36;100.00
21574;BME280;10948;48.706;9.258;2023-03-22T06:10:55;97501.72;;;7.41;100.00
21574;BME280;10948;48.706;9.258;2023-03-22T06:13:21;97503.31;;;7.91;100.00
21574;BME280;10948;48.706;9.258;2023-03-22T06:15:47;97514.50;;;7.92;100.00
21574;BME280;10948;48.706;9.258;2023-03-22T06:18:13;97501.16;;;7.99;100.00
21574;BME280;10948;48.706;9.258;2023-03-22T06:20:38;97512.38;;;8.46;100.00
21574;BME280;10948;48.706;9.258;2023-03-22T06:23:04;97509.25;;;8.55;100.00
21574;BME280;10948;48.706;9.258;2023-03-22T06:25:30;97509.50;;;9.25;100.00
21574;BME280;10948;48.706;9.258;2023-03-22T06:27:56;97514.34;;;9.45;100.00
21574;BME280;10948;48.706;9.258;2023-03-22T06:30:21;97520.09;;;9.78;100.00
21574;BME280;10948;48.706;9.258;2023-03-22T06:32:46;97520.81;;;10.22;100.00
21574;BME280;10948;48.706;9.258;2023-03-22T06:35:11;97522.22;;;10.54;100.00
21574;BME280;10948;48.706;9.258;2023-03-22T06:37:37;97520.06;;;10.87;100.00
21574;BME280;10948;48.706;9.258;2023-03-22T06:40:02;97520.53;;;11.18;99.36
21574;BME280;10948;48.706;9.258;2023-03-22T06:42:27;97523.38;;;11.28;95.32
21574;BME280;10948;48.706;9.258;2023-03-22T06:44:55;97520.00;;;11.90;92.41
21574;BME280;10948;48.706;9.258;2023-03-22T06:47:20;97517.25;;;12.04;89.91
21574;BME280;10948;48.706;9.258;2023-03-22T06:49:45;97517.16;;;12.41;87.82
21574;BME280;10948;48.706;9.258;2023-03-22T06:52:10;97523.66;;;12.95;86.40
21574;BME280;10948;48.706;9.258;2023-03-22T06:54:35;97519.94;;;13.56;81.91
21574;BME280;10948;48.706;9.258;2023-03-22T06:57:01;97525.91;;;14.46;77.47
21574;BME280;10948;48.706;9.258;2023-03-22T06:59:26;97522.88;;;15.97;71.34
21574;BME280;10948;48.706;9.258;2023-03-22T07:01:51;97522.22;;;17.68;63.23
21574;BME280;10948;48.706;9.258;2023-03-22T07:04:17;97530.91;;;19.05;56.64
21574;BME280;10948;48.706;9.258;2023-03-22T07:06:43;97531.06;;;20.17;53.15
21574;BME280;10948;48.706;9.258;2023-03-22T07:09:09;97521.78;;;19.70;52.66
21574;BME280;10948;48.706;9.258;2023-03-22T07:11:34;97516.09;;;19.82;50.93
21574;BME280;10948;48.706;9.258;2023-03-22T07:13:59;97518.81;;;20.16;51.32
21574;BME280;10948;48.706;9.258;2023-03-22T07:16:25;97514.00;;;22.46;47.84
21574;BME280;10948;48.706;9.258;2023-03-22T07:18:50;97519.97;;;22.40;47.47
21574;BME280;10948;48.706;9.258;2023-03-22T07:21:16;97526.25;;;22.47;47.35
21574;BME280;10948;48.706;9.258;2023-03-22T07:23:41;97521.06;;;22.92;47.00
21574;BME280;10948;48.706;9.258;2023-03-22T07:26:07;97515.47;;;22.41;46.57
21574;BME280;10948;48.706;9.258;2023-03-22T07:28:32;97513.94;;;23.46;45.33
21574;BME280;10948;48.706;9.258;2023-03-22T07:30:58;97521.66;;;24.87;43.61
21574;BME280;10948;48.706;9.258;2023-03-22T07:33:23;97515.63;;;25.49;41.69
21574;BME280;10948;48.706;9.258;2023-03-22T07:35:48;97528.22;;;25.05;41.02
21574;BME280;10948;48.706;9.258;2023-03-22T07:38:14;97520.13;;;25.13;42.09
21574;BME280;10948;48.706;9.258;2023-03-22T07:40:39;97512.03;;;24.57;40.74
21574;BME280;10948;48.706;9.258;2023-03-22T07:43:04;97520.41;;;22.90;44.01
21574;BME280;10948;48.706;9.258;2023-03-22T07:45:30;97521.81;;;19.52;49.10
21574;BME280;10948;48.706;9.258;2023-03-22T07:47:55;97518.97;;;19.71;51.32
21574;BME280;10948;48.706;9.258;2023-03-22T07:50:20;97522.66;;;19.00;51.51
21574;BME280;10948;48.706;9.258;2023-03-22T07:52:45;97520.56;;;19.39;51.97
21574;BME280;10948;48.706;9.258;2023-03-22T07:55:12;97516.09;;;19.22;52.71
21574;BME280;10948;48.706;9.258;2023-03-22T07:57:37;97511.63;;;20.67;50.97
21574;BME280;10948;48.706;9.258;2023-03-22T08:00:04;97510.72;;;22.12;46.35
21574;BME280;10948;48.706;9.258;2023-03-22T08:02:31;97508.56;;;26.11;40.26
21574;BME280;10948;48.706;9.258;2023-03-22T08:04:56;97509.41;;;27.40;37.67
21574;BME280;10948;48.706;9.258;2023-03-22T08:07:21;97508.19;;;27.49;37.61
21574;BME280;10948;48.706;9.258;2023-03-22T08:09:49;97517.53;;;26.31;37.60
21574;BME280;10948;48.706;9.258;2023-03-22T08:12:14;97523.47;;;27.81;36.21
21574;BME280;10948;48.706;9.258;2023-03-22T08:14:39;97521.00;;;28.12;35.96
21574;BME280;10948;48.706;9.258;2023-03-22T08:17:04;97523.75;;;28.82;34.79
21574;BME280;10948;48.706;9.258;2023-03-22T08:19:30;97521.53;;;28.72;35.10
21574;BME280;10948;48.706;9.258;2023-03-22T08:21:56;97521.00;;;29.52;32.51
21574;BME280;10948;48.706;9.258;2023-03-22T08:24:21;97529.84;;;28.51;33.96
21574;BME280;10948;48.706;9.258;2023-03-22T08:26:47;97530.06;;;30.13;32.17
21574;BME280;10948;48.706;9.258;2023-03-22T08:29:14;97533.06;;;30.65;31.67
21574;BME280;10948;48.706;9.258;2023-03-22T08:31:39;97528.13;;;31.63;31.38
21574;BME280;10948;48.706;9.258;2023-03-22T08:34:07;97529.50;;;30.71;30.90
21574;BME280;10948;48.706;9.258;2023-03-22T08:36:32;97526.16;;;34.53;27.89
21574;BME280;10948;48.706;9.258;2023-03-22T08:38:58;97523.84;;;34.78;27.54
21574;BME280;10948;48.706;9.258;2023-03-22T08:41:23;97522.69;;;33.47;27.93
21574;BME280;10948;48.706;9.258;2023-03-22T08:43:48;97519.53;;;31.44;29.93
21574;BME280;10948;48.706;9.258;2023-03-22T08:46:14;97519.22;;;31.34;30.28
21574;BME280;10948;48.706;9.258;2023-03-22T08:48:39;97517.34;;;31.63;30.58
21574;BME280;10948;48.706;9.258;2023-03-22T08:51:05;97524.84;;;31.14;30.88
21574;BME280;10948;48.706;9.258;2023-03-22T08:53:31;97511.06;;;29.52;31.75
21574;BME280;10948;48.706;9.258;2023-03-22T08:55:56;97503.50;;;29.74;31.72
21574;BME280;10948;48.706;9.258;2023-03-22T08:58:22;97514.63;;;30.87;30.69
21574;BME280;10948;48.706;9.258;2023-03-22T09:00:47;97504.34;;;26.98;33.19
21574;BME280;10948;48.706;9.258;2023-03-22T09:03:13;97490.50;;;23.86;39.17
21574;BME280;10948;48.706;9.258;2023-03-22T09:05:38;97496.44;;;24.54;39.88
21574;BME280;10948;48.706;9.258;2023-03-22T09:08:03;97499.00;;;25.12;39.14
21574;BME280;10948;48.706;9.258;2023-03-22T09:10:30;97498.63;;;23.25;40.52
21574;BME280;10948;48.706;9.258;2023-03-22T09:12:56;97483.50;;;24.22;40.15
21574;BME280;10948;48.706;9.258;2023-03-22T09:15:21;97485.84;;;24.89;40.16
21574;BME280;10948;48.706;9.258;2023-03-22T09:17:46;97479.34;;;25.13;38.88
21574;BME280;10948;48.706;9.258;2023-03-22T09:20:11;97484.50;;;24.50;39.98
21574;BME280;10948;48.706;9.258;2023-03-22T09:22:37;97487.44;;;24.40;39.88
21574;BME280;10948;48.706;9.258;2023-03-22T09:25:02;97477.72;;;25.33;39.72
21574;BME280;10948;48.706;9.258;2023-03-22T09:27:28;97490.28;;;25.60;39.93
21574;BME280;10948;48.706;9.258;2023-03-22T09:29:53;97482.28;;;26.08;39.18
21574;BME280;10948;48.706;9.258;2023-03-22T09:32:19;97480.75;;;24.94;39.70
21574;BME280;10948;48.706;9.258;2023-03-22T09:34:44;97477.59;;;25.41;40.63
21574;BME280;10948;48.706;9.258;2023-03-22T09:37:09;97476.28;;;26.00;39.31
21574;BME280;10948;48.706;9.258;2023-03-22T09:39:37;97468.97;;;25.60;39.48
21574;BME280;10948;48.706;9.258;2023-03-22T09:42:03;97472.19;;;25.83;39.33
21574;BME280;10948;48.706;9.258;2023-03-22T09:44:31;97457.97;;;26.31;37.22
21574;BME280;10948;48.706;9.258;2023-03-22T09:46:58;97461.03;;;27.15;37.03
21574;BME280;10948;48.706;9.258;2023-03-22T09:49:25;97463.56;;;27.56;37.70
21574;BME280;10948;48.706;9.258;2023-03-22T09:51:53;97456.78;;;27.60;36.61
21574;BME280;10948;48.706;9.258;2023-03-22T09:54:40;97454.06;;;27.21;36.98
21574;BME280;10948;48.706;9.258;2023-03-22T09:57:09;97458.84;;;26.72;36.62
21574;BME280;10948;48.706;9.258;2023-03-22T10:04:47;97451.00;;;27.56;36.48
21574;BME280;10948;48.706;9.258;2023-03-22T10:12:32;97426.88;;;27.11;36.49
21574;BME280;10948;48.706;9.258;2023-03-22T10:15:03;97425.91;;;27.51;36.36
21574;BME280;10948;48.706;9.258;2023-03-22T10:17:30;97424.25;;;27.69;36.22
21574;BME280;10948;48.706;9.258;2023-03-22T10:22:25;97419.09;;;27.22;36.19
21574;BME280;10948;48.706;9.258;2023-03-22T10:24:53;97425.25;;;26.16;38.16
21574;BME280;10948;48.706;9.258;2023-03-22T10:27:20;97420.34;;;27.20;36.53
21574;BME280;10948;48.706;9.258;2023-03-22T10:29:48;97406.25;;;25.22;37.29
21574;BME280;10948;48.706;9.258;2023-03-22T10:32:24;97405.00;;;26.28;37.62
21574;BME280;10948;48.706;9.258;2023-03-22T10:34:53;97398.53;;;25.27;38.44
21574;BME280;10948;48.706;9.258;2023-03-22T10:37:22;97398.72;;;23.24;41.19
21574;BME280;10948;48.706;9.258;2023-03-22T10:39:52;97400.53;;;24.62;39.89
21574;BME280;10948;48.706;9.258;2023-03-22T10:42:22;97398.28;;;24.80;38.69
21574;BME280;10948;48.706;9.258;2023-03-22T10:44:56;97399.66;;;26.75;36.49
21574;BME280;10948;48.706;9.258;2023-03-22T10:47:38;97386.78;;;27.89;35.63
21574;BME280;10948;48.706;9.258;2023-03-22T10:50:08;97385.38;;;27.28;35.87
21574;BME280;10948;48.706;9.258;2023-03-22T10:52:40;97389.69;;;27.55;35.55
21574;BME280;10948;48.706;9.258;2023-03-22T10:55:13;97385.16;;;27.62;34.38
21574;BME280;10948;48.706;9.258;2023-03-22T10:57:39;97385.56;;;28.99;34.74
21574;BME280;10948;48.706;9.258;2023-03-22T11:00:07;97385.13;;;28.01;34.88
21574;BME280;10948;48.706;9.258;2023-03-22T11:02:45;97377.47;;;29.36;32.64
21574;BME280;10948;48.706;9.258;2023-03-22T11:05:17;97377.63;;;28.29;34.08
21574;BME280;10948;48.706;9.258;2023-03-22T11:07:43;97367.38;;;28.13;34.13
21574;BME280;10948;48.706;9.258;2023-03-22T11:12:34;97375.41;;;28.13;33.86
21574;BME280;10948;48.706;9.258;2023-03-22T11:15:00;97366.16;;;28.66;33.73
21574;BME280;10948;48.706;9.258;2023-03-22T11:17:26;97370.78;;;27.37;35.07
21574;BME280;10948;48.706;9.258;2023-03-22T11:19:52;97375.28;;;27.30;35.37
21574;BME280;10948;48.706;9.258;2023-03-22T11:25:08;97371.94;;;25.88;36.65
21574;BME280;10948;48.706;9.258;2023-03-22T11:27:38;97364.53;;;24.01;39.34
21574;BME280;10948;48.706;9.258;2023-03-22T11:32:38;97353.44;;;25.25;38.29
21574;BME280;10948;48.706;9.258;2023-03-22T11:37:39;97360.78;;;25.51;37.01
21574;BME280;10948;48.706;9.258;2023-03-22T11:40:05;97354.06;;;26.23;36.87
21574;BME280;10948;48.706;9.258;2023-03-22T11:42:34;97357.75;;;25.54;36.88
21574;BME280;10948;48.706;9.258;2023-03-22T11:45:00;97352.44;;;27.08;36.62
21574;BME280;10948;48.706;9.258;2023-03-22T11:47:25;97344.41;;;27.86;34.64
21574;BME280;10948;48.706;9.258;2023-03-22T11:49:55;97341.19;;;27.19;34.94
21574;BME280;10948;48.706;9.258;2023-03-22T11:52:22;97334.53;;;27.80;33.88
21574;BME280;10948;48.706;9.258;2023-03-22T11:54:48;97336.81;;;27.63;34.43
21574;BME280;10948;48.706;9.258;2023-03-22T11:57:15;97334.13;;;27.83;34.18
21574;BME280;10948;48.706;9.258;2023-03-22T12:00:02;97331.94;;;28.17;33.92
21574;BME280;10948;48.706;9.258;2023-03-22T12:02:34;97320.53;;;28.35;33.81
21574;BME280;10948;48.706;9.258;2023-03-22T12:07:27;97315.47;;;26.19;35.22
21574;BME280;10948;48.706;9.258;2023-03-22T12:10:13;97311.88;;;27.76;34.44
21574;BME280;10948;48.706;9.258;2023-03-22T12:12:43;97309.09;;;27.19;34.77
21574;BME280;10948;48.706;9.258;2023-03-22T12:15:17;97307.00;;;27.40;35.60
21574;BME280;10948;48.706;9.258;2023-03-22T12:17:59;97295.91;;;26.72;34.55
21574;BME280;10948;48.706;9.258;2023-03-22T12:20:40;97305.63;;;28.08;34.46
21574;BME280;10948;48.706;9.258;2023-03-22T12:23:17;97300.22;;;28.96;32.49
21574;BME280;10948;48.706;9.258;2023-03-22T12:25:45;97296.56;;;28.09;32.63
21574;BME280;10948;48.706;9.258;2023-03-22T12:28:13;97294.25;;;27.10;34.20
21574;BME280;10948;48.706;9.258;2023-03-22T12:30:47;97300.31;;;25.24;36.10
21574;BME280;10948;48.706;9.258;2023-03-22T12:33:18;97298.09;;;24.58;36.85
21574;BME280;10948;48.706;9.258;2023-03-22T12:35:45;97296.25;;;25.96;36.28
21574;BME280;10948;48.706;9.258;2023-03-22T12:38:15;97293.50;;;25.83;34.97
21574;BME280;10948;48.706;9.258;2023-03-22T12:40:44;97287.78;;;25.86;34.95
21574;BME280;10948;48.706;9.258;2023-03-22T12:46:04;97280.81;;;26.32;35.49
21574;BME280;10948;48.706;9.258;2023-03-22T12:51:14;97278.53;;;26.29;34.37
21574;BME280;10948;48.706;9.258;2023-03-22T12:53:42;97282.75;;;27.29;33.87
21574;BME280;10948;48.706;9.258;2023-03-22T12:56:21;97279.47;;;26.75;33.89
21574;BME280;10948;48.706;9.258;2023-03-22T12:58:55;97280.50;;;26.01;35.18
21574;BME280;10948;48.706;9.258;2023-03-22T13:01:29;97285.78;;;25.26;36.94
21574;BME280;10948;48.706;9.258;2023-03-22T13:03:57;97284.59;;;24.80;37.27
21574;BME280;10948;48.706;9.258;2023-03-22T13:06:53;97281.00;;;24.67;37.50
21574;BME280;10948;48.706;9.258;2023-03-22T13:19:54;97255.84;;;26.72;34.80
21574;BME280;10948;48.706;9.258;2023-03-22T13:23:08;97256.03;;;26.90;34.35
21574;BME280;10948;48.706;9.258;2023-03-22T13:30:22;97246.66;;;26.14;34.55
21574;BME280;10948;48.706;9.258;2023-03-22T13:32:52;97239.50;;;24.37;35.49
21574;BME280;10948;48.706;9.258;2023-03-22T13:37:47;97230.09;;;26.38;34.13
21574;BME280;10948;48.706;9.258;2023-03-22T13:40:33;97232.81;;;25.17;34.72
21574;BME280;10948;48.706;9.258;2023-03-22T13:48:28;97231.00;;;25.17;35.79
21574;BME280;10948;48.706;9.258;2023-03-22T13:50:54;97227.22;;;25.33;35.82
21574;BME280;10948;48.706;9.258;2023-03-22T13:53:22;97221.41;;;26.17;34.51
21574;BME280;10948;48.706;9.258;2023-03-22T13:58:33;97207.13;;;26.57;35.37
21574;BME280;10948;48.706;9.258;2023-03-22T14:01:01;97197.56;;;25.96;34.76
21574;BME280;10948;48.706;9.258;2023-03-22T14:03:31;97206.56;;;25.88;35.08
21574;BME280;10948;48.706;9.258;2023-03-22T14:06:02;97198.66;;;25.61;35.15
21574;BME280;10948;48.706;9.258;2023-03-22T14:08:29;97202.34;;;25.60;36.04
21574;BME280;10948;48.706;9.258;2023-03-22T14:11:00;97195.97;;;24.59;36.33
21574;BME280;10948;48.706;9.258;2023-03-22T14:13:31;97190.25;;;24.20;35.44
21574;BME280;10948;48.706;9.258;2023-03-22T14:16:02;97190.88;;;24.43;35.96
21574;BME280;10948;48.706;9.258;2023-03-22T14:18:29;97194.50;;;24.35;37.28
21574;BME280;10948;48.706;9.258;2023-03-22T14:20:59;97199.00;;;23.93;36.58
21574;BME280;10948;48.706;9.258;2023-03-22T14:23:29;97191.94;;;24.27;35.90
21574;BME280;10948;48.706;9.258;2023-03-22T14:25:57;97188.22;;;24.01;36.50
21574;BME280;10948;48.706;9.258;2023-03-22T14:28:34;97185.56;;;24.01;36.50
21574;BME280;10948;48.706;9.258;2023-03-22T14:31:00;97189.38;;;24.13;37.03
21574;BME280;10948;48.706;9.258;2023-03-22T14:33:26;97195.22;;;23.52;37.72
21574;BME280;10948;48.706;9.258;2023-03-22T14:35:55;97192.88;;;23.64;37.74
21574;BME280;10948;48.706;9.258;2023-03-22T14:38:22;97191.16;;;23.42;38.50
21574;BME280;10948;48.706;9.258;2023-03-22T14:41:03;97192.75;;;23.36;38.42
21574;BME280;10948;48.706;9.258;2023-03-22T14:43:30;97190.84;;;23.66;38.13
21574;BME280;10948;48.706;9.258;2023-03-22T14:46:00;97183.19;;;23.42;37.70
21574;BME280;10948;48.706;9.258;2023-03-22T14:48:29;97176.72;;;22.86;38.24
21574;BME280;10948;48.706;9.258;2023-03-22T14:50:55;97189.81;;;23.31;38.17